createdAt,value
2022-10-21T00:00:23.417Z,47.26
2022-10-21T00:02:51.145Z,46.53
2022-10-21T00:05:18.638Z,45.39
2022-10-21T00:07:46.063Z,44.83
2022-10-21T00:10:13.844Z,45.05
2022-10-21T00:12:41.409Z,45.35
2022-10-21T00:15:10.483Z,45.67
2022-10-21T00:17:39.585Z,46.01
2022-10-21T00:20:09.003Z,45.58
2022-10-21T00:22:37.281Z,46.86
2022-10-21T00:25:05.761Z,47.30
2022-10-21T00:27:33.249Z,47.48
2022-10-21T00:30:00.708Z,47.59
2022-10-21T00:32:28.419Z,47.69
2022-10-21T00:34:55.832Z,47.00
2022-10-21T00:37:23.256Z,47.50
2022-10-21T00:39:52.292Z,47.99
2022-10-21T00:42:22.941Z,47.60
2022-10-21T00:45:05.772Z,47.56
2022-10-21T00:47:56.318Z,46.68
2022-10-21T00:50:42.707Z,47.45
2022-10-21T00:53:14.521Z,47.38
2022-10-21T00:55:47.137Z,47.03
2022-10-21T00:58:15.918Z,47.07
2022-10-21T01:00:43.670Z,47.08
2022-10-21T01:03:12.297Z,46.63
2022-10-21T01:05:40.995Z,46.36
2022-10-21T01:08:08.694Z,47.04
2022-10-21T01:10:38.017Z,46.68
2022-10-21T01:13:16.690Z,47.11
2022-10-21T01:15:55.451Z,47.80
2022-10-21T01:18:34.505Z,46.98
2022-10-21T01:21:14.451Z,46.74
2022-10-21T01:24:17.137Z,46.90
2022-10-21T01:27:06.045Z,47.29
2022-10-21T01:29:42.439Z,46.95
2022-10-21T01:32:30.294Z,46.02
2022-10-21T01:35:03.227Z,46.74
2022-10-21T01:37:38.335Z,46.21
2022-10-21T01:40:14.025Z,46.64
2022-10-21T01:42:50.406Z,46.23
2022-10-21T01:45:49.006Z,46.94
2022-10-21T01:48:21.027Z,46.55
2022-10-21T01:50:52.230Z,46.79
2022-10-21T01:53:21.077Z,46.93
2022-10-21T01:55:49.296Z,46.53
2022-10-21T01:58:20.568Z,46.32
2022-10-21T02:00:49.937Z,46.82
2022-10-21T02:03:22.731Z,46.77
2022-10-21T02:05:50.262Z,46.78
2022-10-21T02:08:17.987Z,46.88
2022-10-21T02:10:49.317Z,46.86
2022-10-21T02:13:21.149Z,46.79
2022-10-21T02:15:49.008Z,46.80
2022-10-21T02:18:21.996Z,46.83
2022-10-21T02:20:53.090Z,46.14
2022-10-21T02:23:26.206Z,46.54
2022-10-21T02:25:53.930Z,45.98
2022-10-21T02:28:21.506Z,46.16
2022-10-21T02:30:59.779Z,45.77
2022-10-21T02:33:39.665Z,46.30
2022-10-21T02:36:17.366Z,45.67
2022-10-21T02:38:48.443Z,46.41
2022-10-21T02:41:19.372Z,45.77
2022-10-21T02:44:16.330Z,46.43
2022-10-21T02:46:44.621Z,48.31
2022-10-21T02:49:12.919Z,47.82
2022-10-21T02:51:41.500Z,47.28
2022-10-21T02:54:08.919Z,47.30
2022-10-21T02:56:36.648Z,46.52
2022-10-21T02:59:04.093Z,47.79
2022-10-21T03:01:31.573Z,47.23
2022-10-21T03:03:59.236Z,47.34
2022-10-21T03:06:26.686Z,47.97
2022-10-21T03:08:54.165Z,47.33
2022-10-21T03:11:22.017Z,47.96
2022-10-21T03:13:49.416Z,47.51
2022-10-21T03:18:49.484Z,47.37
2022-10-21T03:21:16.872Z,47.52
2022-10-21T03:23:44.323Z,47.19
2022-10-21T03:26:12.054Z,47.23
2022-10-21T03:28:39.592Z,47.08
2022-10-21T03:31:06.998Z,46.98
2022-10-21T03:33:34.666Z,47.02
2022-10-21T03:36:02.047Z,47.67
2022-10-21T03:38:29.640Z,47.98
2022-10-21T03:40:57.366Z,47.14
2022-10-21T03:43:24.781Z,47.64
2022-10-21T03:45:52.186Z,47.83
2022-10-21T03:48:19.877Z,47.46
2022-10-21T03:50:47.592Z,48.28
2022-10-21T03:53:31.019Z,47.62
2022-10-21T03:56:02.793Z,48.01
2022-10-21T03:58:30.259Z,48.49
2022-10-21T04:00:57.661Z,48.27
2022-10-21T04:03:25.379Z,47.63
2022-10-21T04:05:52.804Z,48.42
2022-10-21T04:08:20.190Z,48.43
2022-10-21T04:10:47.991Z,49.23
2022-10-21T04:13:15.459Z,49.35
2022-10-21T04:15:42.870Z,49.73
2022-10-21T04:18:10.576Z,48.59
2022-10-21T04:20:38.081Z,48.87
2022-10-21T04:23:05.470Z,48.67
2022-10-21T04:25:33.276Z,48.91
2022-10-21T04:28:00.673Z,48.66
2022-10-21T04:30:28.109Z,48.71
2022-10-21T04:32:55.837Z,49.21
2022-10-21T04:35:23.275Z,49.13
2022-10-21T04:37:50.709Z,49.54
2022-10-21T04:40:18.479Z,49.37
2022-10-21T04:42:49.681Z,49.59
2022-10-21T04:45:17.746Z,49.04
2022-10-21T04:47:45.412Z,49.37
2022-10-21T04:50:12.865Z,50.12
2022-10-21T04:52:40.663Z,50.79
2022-10-21T04:55:09.032Z,50.45
2022-10-21T04:57:36.693Z,49.91
2022-10-21T05:00:05.240Z,50.14
2022-10-21T05:02:33.049Z,50.32
2022-10-21T05:05:00.471Z,50.02
2022-10-21T05:07:27.970Z,50.27
2022-10-21T05:09:55.627Z,50.23
2022-10-21T05:12:23.139Z,50.87
2022-10-21T05:14:50.595Z,51.72
2022-10-21T05:17:18.303Z,50.21
2022-10-21T05:19:45.699Z,50.39
2022-10-21T05:22:13.143Z,50.25
2022-10-21T05:24:40.917Z,50.71
2022-10-21T05:27:08.314Z,49.90
2022-10-21T05:29:35.713Z,50.22
2022-10-21T05:32:03.543Z,50.60
2022-10-21T05:34:30.927Z,49.41
2022-10-21T05:36:58.524Z,49.71
2022-10-21T05:39:26.334Z,49.91
2022-10-21T05:41:53.745Z,49.61
2022-10-21T05:44:21.286Z,49.18
2022-10-21T05:46:48.943Z,50.01
2022-10-21T05:49:16.341Z,50.83
2022-10-21T05:51:45.109Z,49.78
2022-10-21T05:54:12.869Z,49.39
2022-10-21T05:56:42.537Z,49.26
2022-10-21T05:59:10.449Z,50.31
2022-10-21T06:01:39.541Z,49.25
2022-10-21T06:04:07.953Z,49.47
2022-10-21T06:06:35.393Z,49.86
2022-10-21T06:09:02.869Z,49.88
2022-10-21T06:11:30.972Z,49.00
2022-10-21T06:13:58.373Z,50.79
2022-10-21T06:16:25.835Z,50.48
2022-10-21T06:18:53.528Z,50.59
2022-10-21T06:21:20.945Z,49.62
2022-10-21T06:23:48.370Z,49.12
2022-10-21T06:26:17.187Z,49.04
2022-10-21T06:28:45.110Z,50.84
2022-10-21T06:31:18.418Z,49.69
2022-10-21T06:33:46.162Z,48.89
2022-10-21T06:36:14.058Z,48.55
2022-10-21T06:38:41.624Z,48.18
2022-10-21T06:41:13.560Z,47.96
2022-10-21T06:43:42.362Z,47.95
2022-10-21T06:46:12.907Z,49.00
2022-10-21T06:48:40.568Z,49.32
2022-10-21T06:51:15.037Z,49.68
2022-10-21T06:53:43.734Z,50.33
2022-10-21T06:56:16.692Z,48.93
2022-10-21T06:58:48.130Z,48.83
2022-10-21T07:01:33.815Z,49.69
2022-10-21T07:04:06.896Z,50.77
2022-10-21T07:09:08.159Z,49.27
2022-10-21T07:11:35.663Z,49.49
2022-10-21T07:14:03.325Z,51.83
2022-10-21T07:16:33.171Z,49.82
2022-10-21T07:19:00.569Z,51.81
2022-10-21T07:21:30.236Z,51.43
2022-10-21T07:23:59.550Z,51.53
2022-10-21T07:26:29.716Z,50.19
2022-10-21T07:28:59.924Z,50.30
2022-10-21T07:31:29.006Z,50.20
2022-10-21T07:33:56.745Z,50.00
2022-10-21T07:36:26.861Z,49.19
2022-10-21T07:38:57.226Z,47.94
2022-10-21T07:41:27.279Z,48.41
2022-10-21T07:43:55.138Z,48.43
2022-10-21T07:46:22.681Z,48.77
2022-10-21T07:48:50.817Z,49.83
2022-10-21T07:51:21.506Z,49.29
2022-10-21T07:53:50.377Z,48.38
2022-10-21T07:56:21.420Z,47.60
2022-10-21T07:58:50.810Z,47.97
2022-10-21T08:01:19.585Z,48.96
2022-10-21T08:03:48.756Z,48.02
2022-10-21T08:06:17.312Z,48.88
2022-10-21T08:08:45.724Z,48.10
2022-10-21T08:11:21.885Z,48.00
2022-10-21T08:13:49.370Z,48.42
2022-10-21T08:16:17.058Z,48.21
2022-10-21T08:18:44.568Z,47.58
2022-10-21T08:21:13.105Z,49.16
2022-10-21T08:23:41.006Z,48.06
2022-10-21T08:26:12.009Z,48.32
2022-10-21T08:28:40.151Z,48.54
2022-10-21T08:31:14.133Z,48.33
2022-10-21T08:33:41.619Z,49.41
2022-10-21T08:36:12.721Z,50.13
2022-10-21T08:38:40.311Z,49.02
2022-10-21T08:41:18.946Z,47.84
2022-10-21T08:43:46.669Z,47.12
2022-10-21T08:46:18.489Z,47.84
2022-10-21T08:48:51.838Z,47.87
2022-10-21T08:51:35.062Z,47.14
2022-10-21T08:54:05.711Z,47.98
2022-10-21T08:56:33.393Z,47.78
2022-10-21T08:59:00.850Z,47.14
2022-10-21T09:01:39.402Z,47.24
2022-10-21T09:04:28.470Z,47.13
2022-10-21T09:07:19.503Z,47.63
2022-10-21T09:09:53.985Z,47.49
2022-10-21T09:12:30.712Z,46.19
2022-10-21T09:15:27.681Z,46.07
2022-10-21T09:18:30.316Z,45.33
2022-10-21T09:21:11.157Z,45.96
2022-10-21T09:23:57.565Z,45.35
2022-10-21T09:26:36.899Z,44.72
2022-10-21T09:29:21.353Z,45.95
2022-10-21T09:31:55.178Z,45.58
2022-10-21T09:34:43.937Z,44.43
2022-10-21T09:37:18.691Z,44.70
2022-10-21T09:39:50.170Z,45.46
2022-10-21T09:42:35.713Z,46.00
2022-10-21T09:45:06.526Z,46.61
2022-10-21T09:47:34.287Z,46.17
2022-10-21T09:50:07.594Z,44.75
2022-10-21T09:52:36.571Z,44.29
2022-10-21T09:55:04.518Z,44.95
2022-10-21T09:58:01.173Z,44.75
2022-10-21T10:01:01.064Z,44.33
2022-10-21T10:03:37.191Z,44.78
2022-10-21T10:06:05.909Z,44.22
2022-10-21T10:08:33.697Z,43.48
2022-10-21T10:11:02.235Z,44.34
2022-10-21T10:13:31.603Z,42.77
2022-10-21T10:16:12.886Z,42.87
2022-10-21T10:18:41.430Z,43.02
2022-10-21T10:29:01.092Z,42.47
2022-10-21T10:31:32.345Z,43.38
2022-10-21T10:34:04.215Z,43.25
2022-10-21T10:36:35.828Z,42.97
2022-10-21T10:39:07.656Z,43.81
2022-10-21T10:41:38.960Z,43.31
2022-10-21T10:44:25.342Z,42.68
2022-10-21T10:46:57.518Z,43.47
2022-10-21T10:49:26.697Z,42.91
2022-10-21T10:52:05.305Z,43.29
2022-10-21T10:54:32.827Z,42.52
2022-10-21T10:57:04.528Z,43.01
2022-10-21T10:59:56.865Z,42.53
2022-10-21T11:02:57.014Z,43.02
2022-10-21T11:05:51.210Z,42.95
2022-10-21T11:08:42.325Z,43.46
2022-10-21T11:11:22.774Z,43.04
2022-10-21T11:13:50.552Z,42.51
2022-10-21T11:16:27.180Z,42.64
2022-10-21T11:19:02.281Z,42.19
2022-10-21T11:21:53.492Z,43.62
2022-10-21T11:24:56.851Z,42.70
2022-10-21T11:27:45.499Z,43.07
2022-10-21T11:30:45.600Z,43.77
2022-10-21T11:33:33.437Z,42.31
2022-10-21T11:36:26.611Z,42.47
2022-10-21T11:39:25.341Z,42.08
2022-10-21T11:42:14.133Z,42.12
2022-10-21T11:45:21.277Z,42.66
2022-10-21T11:48:03.809Z,42.00
2022-10-21T11:50:46.325Z,42.55
2022-10-21T11:53:29.074Z,42.16
2022-10-21T11:56:27.564Z,42.10
2022-10-21T11:58:55.483Z,41.51
2022-10-21T12:01:41.955Z,41.83
2022-10-21T12:04:51.641Z,41.76
2022-10-21T12:07:43.156Z,41.55
2022-10-21T12:10:34.243Z,42.56
2022-10-21T12:13:17.280Z,41.48
2022-10-21T12:15:52.095Z,41.26
2022-10-21T12:18:21.830Z,41.05
2022-10-21T12:20:51.860Z,40.85
2022-10-21T12:23:21.920Z,40.37
2022-10-21T12:26:15.365Z,40.11
2022-10-21T12:28:51.603Z,40.47
2022-10-21T12:31:49.329Z,39.98
2022-10-21T12:34:16.785Z,40.64
2022-10-21T12:36:46.839Z,39.50
2022-10-21T12:39:50.418Z,39.65
2022-10-21T12:42:20.095Z,40.07
2022-10-21T12:44:52.453Z,40.31
2022-10-21T12:47:32.172Z,39.95
2022-10-21T12:50:14.813Z,40.43
2022-10-21T12:52:43.685Z,40.09
2022-10-21T12:55:24.632Z,40.13
2022-10-21T12:57:58.309Z,40.01
2022-10-21T13:00:28.797Z,39.83
2022-10-21T13:03:12.670Z,40.55
2022-10-21T13:05:40.611Z,40.34
2022-10-21T13:08:27.124Z,40.06
2022-10-21T13:11:06.320Z,39.52
2022-10-21T13:13:35.631Z,39.45
2022-10-21T13:16:18.459Z,39.40
2022-10-21T13:19:01.066Z,39.43
2022-10-21T13:21:40.191Z,39.12
2022-10-21T13:24:38.300Z,40.05
2022-10-21T13:27:26.943Z,39.36
2022-10-21T13:29:55.140Z,39.73
2022-10-21T13:32:35.113Z,39.84
2022-10-21T13:35:31.038Z,39.78
2022-10-21T13:38:03.535Z,39.56
2022-10-21T13:40:39.033Z,38.93
2022-10-21T13:43:13.812Z,38.93
2022-10-21T13:45:49.737Z,38.93
2022-10-21T13:48:19.827Z,38.76
2022-10-21T13:50:49.944Z,38.74
2022-10-21T13:53:17.250Z,38.23
2022-10-21T13:55:56.085Z,38.35
2022-10-21T13:58:24.888Z,38.80
2022-10-21T14:00:57.793Z,39.12
2022-10-21T14:03:28.025Z,38.38
2022-10-21T14:06:00.238Z,38.57
2022-10-21T14:08:46.833Z,38.10
2022-10-21T14:11:18.797Z,38.55
2022-10-21T14:13:48.649Z,38.11
2022-10-21T14:16:32.419Z,38.14
2022-10-21T14:19:02.747Z,37.98
2022-10-21T14:21:32.791Z,37.84
2022-10-21T14:24:01.770Z,38.13
2022-10-21T14:26:32.703Z,37.79
2022-10-21T14:29:01.103Z,37.14
2022-10-21T14:31:29.262Z,38.42
2022-10-21T14:33:56.762Z,38.80
2022-10-21T14:36:27.781Z,38.43
2022-10-21T14:39:08.685Z,37.80
2022-10-21T14:41:38.527Z,38.13
2022-10-21T14:44:28.129Z,38.18
2022-10-21T14:46:55.549Z,37.90
2022-10-21T14:49:29.680Z,38.76
2022-10-21T14:52:07.139Z,38.98
2022-10-21T14:54:44.280Z,38.87
2022-10-21T14:57:30.646Z,39.05
2022-10-21T14:59:59.368Z,40.28
2022-10-21T15:02:34.451Z,40.22
2022-10-21T15:05:03.096Z,39.02
2022-10-21T15:07:32.593Z,39.29
2022-10-21T15:10:02.824Z,39.32
2022-10-21T15:12:47.110Z,39.47
2022-10-21T15:15:40.504Z,38.91
2022-10-21T15:18:32.258Z,39.62
2022-10-21T15:21:06.137Z,39.36
2022-10-21T15:23:38.025Z,39.36
2022-10-21T15:26:30.831Z,40.13
2022-10-21T15:28:58.759Z,39.79
2022-10-21T15:31:28.750Z,39.68
2022-10-21T15:33:57.536Z,39.32
2022-10-21T15:36:25.413Z,39.72
2022-10-21T15:38:54.722Z,40.19
2022-10-21T15:41:25.341Z,39.38
2022-10-21T15:43:56.078Z,39.71
2022-10-21T15:46:25.967Z,39.73
2022-10-21T15:48:54.074Z,39.21
2022-10-21T15:51:21.646Z,39.76
2022-10-21T15:53:49.103Z,38.94
2022-10-21T15:56:18.415Z,38.50
2022-10-21T15:58:46.613Z,38.20
2022-10-21T16:01:16.377Z,38.63
2022-10-21T16:03:45.855Z,39.03
2022-10-21T16:06:19.662Z,38.57
2022-10-21T16:08:48.403Z,38.25
2022-10-21T16:11:25.638Z,37.75
2022-10-21T16:14:02.913Z,37.54
2022-10-21T16:16:30.512Z,37.57
2022-10-21T16:18:58.250Z,37.97
2022-10-21T16:21:26.370Z,37.71
2022-10-21T16:23:55.784Z,37.77
2022-10-21T16:26:25.565Z,37.42
2022-10-21T16:28:55.241Z,37.17
2022-10-21T16:31:23.513Z,37.04
2022-10-21T16:33:50.940Z,37.38
2022-10-21T16:36:27.776Z,36.84
2022-10-21T16:38:55.704Z,36.82
2022-10-21T16:41:28.189Z,36.94
2022-10-21T16:43:58.771Z,36.65
2022-10-21T16:46:36.105Z,37.04
2022-10-21T16:49:12.085Z,36.58
2022-10-21T16:51:46.232Z,36.90
2022-10-21T16:54:15.098Z,36.95
2022-10-21T16:56:42.781Z,37.32
2022-10-21T16:59:10.293Z,37.12
2022-10-21T17:01:38.070Z,37.97
2022-10-21T17:04:05.875Z,37.83
2022-10-21T17:06:34.444Z,37.80
2022-10-21T17:09:02.128Z,37.96
2022-10-21T17:11:33.441Z,37.77
2022-10-21T17:14:02.260Z,37.71
2022-10-21T17:16:30.276Z,37.50
2022-10-21T17:18:58.999Z,37.56
2022-10-21T17:21:28.956Z,37.38
2022-10-21T17:23:57.591Z,37.28
2022-10-21T17:26:26.046Z,37.14
2022-10-21T17:28:53.970Z,37.81
2022-10-21T17:31:23.850Z,37.29
2022-10-21T17:33:52.768Z,38.05
2022-10-21T17:36:20.569Z,37.74
2022-10-21T17:38:48.594Z,37.72
2022-10-21T17:41:18.725Z,37.70
2022-10-21T17:43:47.402Z,37.96
2022-10-21T17:46:20.216Z,38.67
2022-10-21T17:48:52.366Z,37.68
2022-10-21T17:51:20.818Z,37.84
2022-10-21T17:53:50.023Z,37.68
2022-10-21T17:56:18.154Z,37.61
2022-10-21T17:58:49.719Z,37.77
2022-10-21T18:01:17.952Z,38.13
2022-10-21T18:03:45.898Z,37.81
2022-10-21T18:06:14.232Z,37.79
2022-10-21T18:08:42.516Z,38.04
2022-10-21T18:11:12.986Z,38.34
2022-10-21T18:13:40.713Z,38.31
2022-10-21T18:16:19.722Z,39.02
2022-10-21T18:18:48.736Z,38.55
2022-10-21T18:21:19.391Z,38.46
2022-10-21T18:23:48.917Z,38.45
2022-10-21T18:26:19.713Z,38.35
2022-10-21T18:29:05.768Z,38.35
2022-10-21T18:31:33.847Z,38.23
2022-10-21T18:34:03.981Z,38.25
2022-10-21T18:36:32.667Z,38.34
2022-10-21T18:39:01.207Z,38.57
2022-10-21T18:41:30.447Z,38.96
2022-10-21T18:44:04.667Z,38.55
2022-10-21T18:46:32.665Z,38.83
2022-10-21T18:49:02.679Z,38.55
2022-10-21T18:51:30.370Z,38.59
2022-10-21T18:53:58.297Z,39.30
2022-10-21T18:56:27.061Z,39.09
2022-10-21T18:58:58.063Z,39.35
2022-10-21T19:01:26.872Z,39.11
2022-10-21T19:03:56.099Z,39.32
2022-10-21T19:06:39.177Z,39.19
2022-10-21T19:09:16.093Z,39.41
2022-10-21T19:11:44.174Z,39.55
2022-10-21T19:14:14.398Z,39.83
2022-10-21T19:16:43.933Z,39.31
2022-10-21T19:19:13.091Z,39.40
2022-10-21T19:21:45.791Z,39.55
2022-10-21T19:24:13.850Z,39.36
2022-10-21T19:26:43.931Z,39.92
2022-10-21T19:29:14.203Z,40.21
2022-10-21T19:31:42.267Z,39.71
2022-10-21T19:34:14.876Z,39.58
2022-10-21T19:36:43.145Z,39.83
2022-10-21T19:39:11.020Z,40.19
2022-10-21T19:41:39.982Z,40.25
2022-10-21T19:44:08.237Z,39.82
2022-10-21T19:46:36.366Z,40.11
2022-10-21T19:49:06.421Z,40.74
2022-10-21T19:51:34.512Z,40.79
2022-10-21T19:54:04.982Z,40.60
2022-10-21T19:56:34.673Z,40.56
2022-10-21T19:59:03.318Z,41.76
2022-10-21T20:01:31.713Z,41.83
2022-10-21T20:04:00.652Z,41.39
2022-10-21T20:06:30.468Z,41.89
2022-10-21T20:09:00.440Z,41.56
2022-10-21T20:11:29.379Z,41.63
2022-10-21T20:13:57.122Z,41.46
2022-10-21T20:16:30.261Z,41.89
2022-10-21T20:19:00.218Z,42.70
2022-10-21T20:21:28.216Z,42.95
2022-10-21T20:23:57.145Z,42.14
2022-10-21T20:26:25.013Z,42.31
2022-10-21T20:28:52.728Z,42.49
2022-10-21T20:31:20.603Z,42.29
2022-10-21T20:33:50.510Z,43.24
2022-10-21T20:36:26.693Z,43.26
2022-10-21T20:38:56.538Z,42.81
2022-10-21T20:41:26.698Z,43.57
2022-10-21T20:43:55.058Z,42.54
2022-10-21T20:46:24.018Z,43.15
2022-10-21T20:48:53.055Z,42.78
2022-10-21T20:51:24.005Z,43.11
2022-10-21T20:53:58.139Z,43.63
2022-10-21T20:56:33.058Z,42.77
2022-10-21T20:59:00.945Z,42.92
2022-10-21T21:01:31.351Z,43.07
2022-10-21T21:04:00.903Z,43.44
2022-10-21T21:06:29.005Z,43.17
2022-10-21T21:09:29.040Z,43.33
2022-10-21T21:11:44.296Z,43.66
2022-10-21T21:14:11.775Z,44.83
2022-10-21T21:16:39.192Z,45.04
2022-10-21T21:19:08.682Z,44.23
2022-10-21T21:21:36.951Z,44.36
2022-10-21T21:24:04.969Z,43.83
2022-10-21T21:26:35.165Z,44.07
2022-10-21T21:29:02.969Z,45.13
2022-10-21T21:31:31.086Z,45.42
2022-10-21T21:33:58.942Z,45.99
2022-10-21T21:36:26.648Z,45.24
2022-10-21T21:38:54.208Z,45.30
2022-10-21T21:41:23.584Z,44.69
2022-10-21T21:43:52.161Z,44.44
2022-10-21T21:46:24.055Z,44.47
2022-10-21T21:48:59.490Z,44.50
2022-10-21T21:51:30.362Z,45.21
2022-10-21T21:53:58.868Z,44.79
2022-10-21T21:56:27.089Z,44.76
2022-10-21T21:58:56.077Z,44.67
2022-10-21T22:01:26.587Z,44.84
2022-10-21T22:03:54.608Z,44.96
2022-10-21T22:08:57.576Z,44.93
2022-10-21T22:11:27.380Z,44.71
2022-10-21T22:13:55.367Z,44.67
2022-10-21T22:16:25.693Z,44.99
2022-10-21T22:18:54.505Z,45.34
2022-10-21T22:21:22.441Z,45.35
2022-10-21T22:23:51.048Z,45.35
2022-10-21T22:26:20.450Z,45.71
2022-10-21T22:28:47.888Z,45.62
2022-10-21T22:31:17.355Z,46.01
2022-10-21T22:33:45.582Z,45.55
2022-10-21T22:36:13.384Z,45.45
2022-10-21T22:38:41.073Z,45.69
2022-10-21T22:41:12.240Z,45.54
2022-10-21T22:43:40.481Z,45.35
2022-10-21T22:46:29.165Z,45.09
2022-10-21T22:48:55.612Z,45.29
2022-10-21T22:51:23.341Z,45.07
2022-10-21T22:53:55.293Z,45.34
2022-10-21T22:56:25.689Z,45.69
2022-10-21T22:58:53.092Z,45.49
2022-10-21T23:01:20.589Z,45.43
2022-10-21T23:03:48.253Z,45.57
2022-10-21T23:06:15.683Z,46.29
2022-10-21T23:08:43.179Z,46.20
2022-10-21T23:11:10.858Z,46.47
2022-10-21T23:13:41.366Z,46.54
2022-10-21T23:16:14.981Z,46.93
2022-10-21T23:18:42.400Z,47.06
2022-10-21T23:21:09.787Z,47.16
2022-10-21T23:23:37.489Z,47.11
2022-10-21T23:26:05.543Z,47.09
2022-10-21T23:28:33.287Z,47.05
2022-10-21T23:31:01.260Z,47.29
2022-10-21T23:33:28.637Z,47.39
2022-10-21T23:35:56.108Z,47.34
2022-10-21T23:38:23.785Z,47.38
2022-10-21T23:40:51.176Z,47.67
2022-10-21T23:43:18.622Z,47.51
2022-10-21T23:45:48.828Z,48.69
2022-10-21T23:48:16.279Z,48.14
2022-10-21T23:50:44.688Z,47.99
2022-10-21T23:53:12.518Z,48.00
2022-10-21T23:55:39.914Z,47.95
2022-10-21T23:58:07.719Z,47.94
